createdAt,value
2022-09-21T00:00:28.136Z,5.05
2022-09-21T00:02:58.477Z,5.06
2022-09-21T00:05:27.828Z,5.22
2022-09-21T00:08:09.034Z,5.30
2022-09-21T00:10:38.227Z,5.26
2022-09-21T00:13:08.953Z,5.18
2022-09-21T00:15:41.836Z,5.24
2022-09-21T00:18:11.959Z,5.24
2022-09-21T00:20:43.998Z,5.27
2022-09-21T00:23:14.560Z,5.31
2022-09-21T00:25:43.790Z,5.42
2022-09-21T00:28:13.249Z,5.48
2022-09-21T00:30:43.415Z,5.34
2022-09-21T00:33:12.586Z,5.27
2022-09-21T00:35:41.728Z,5.20
2022-09-21T00:38:10.816Z,5.13
2022-09-21T00:40:41.495Z,5.18
2022-09-21T00:43:16.058Z,5.26
2022-09-21T00:45:48.365Z,5.20
2022-09-21T00:48:18.178Z,5.08
2022-09-21T00:50:54.651Z,5.00
2022-09-21T00:53:24.094Z,4.91
2022-09-21T00:55:58.124Z,4.86
2022-09-21T00:58:32.691Z,4.83
2022-09-21T01:01:02.802Z,4.80
2022-09-21T01:03:33.439Z,4.92
2022-09-21T01:06:03.156Z,4.86
2022-09-21T01:08:34.507Z,5.15
2022-09-21T01:11:26.833Z,5.15
2022-09-21T01:14:19.451Z,4.92
2022-09-21T01:17:02.603Z,4.75
2022-09-21T01:20:09.004Z,4.78
2022-09-21T01:22:55.609Z,4.82
2022-09-21T01:25:36.424Z,5.17
2022-09-21T01:28:23.595Z,5.14
2022-09-21T01:30:55.609Z,5.02
2022-09-21T01:33:30.325Z,4.96
2022-09-21T01:36:07.712Z,4.83
2022-09-21T01:38:40.092Z,4.76
2022-09-21T01:41:13.496Z,4.74
2022-09-21T01:43:49.773Z,4.66
2022-09-21T01:46:23.432Z,4.49
2022-09-21T01:48:58.598Z,4.42
2022-09-21T01:51:34.376Z,4.30
2022-09-21T01:54:10.825Z,4.35
2022-09-21T01:56:46.782Z,4.39
2022-09-21T01:59:22.090Z,4.60
2022-09-21T02:01:57.690Z,4.37
2022-09-21T02:04:27.495Z,4.29
2022-09-21T02:06:57.478Z,4.24
2022-09-21T02:09:37.883Z,4.34
2022-09-21T02:12:07.400Z,4.50
2022-09-21T02:14:39.605Z,4.47
2022-09-21T02:17:26.521Z,4.43
2022-09-21T02:20:08.800Z,4.52
2022-09-21T02:22:50.034Z,4.44
2022-09-21T02:25:29.945Z,4.31
2022-09-21T02:28:08.154Z,4.15
2022-09-21T02:30:39.223Z,4.09
2022-09-21T02:33:14.070Z,4.06
2022-09-21T02:35:51.100Z,4.09
2022-09-21T02:38:30.735Z,3.98
2022-09-21T02:41:11.127Z,3.98
2022-09-21T02:43:46.836Z,4.06
2022-09-21T02:46:24.681Z,4.05
2022-09-21T02:49:00.613Z,4.00
2022-09-21T02:51:33.781Z,4.01
2022-09-21T02:54:08.119Z,3.89
2022-09-21T02:56:38.476Z,3.78
2022-09-21T02:59:08.403Z,3.71
2022-09-21T03:01:40.357Z,3.93
2022-09-21T03:04:11.316Z,3.85
2022-09-21T03:06:41.548Z,3.89
2022-09-21T03:09:10.988Z,3.81
2022-09-21T03:11:42.521Z,3.82
2022-09-21T03:14:11.890Z,3.86
2022-09-21T03:16:41.090Z,3.81
2022-09-21T03:19:12.091Z,3.80
2022-09-21T03:21:44.454Z,3.89
2022-09-21T03:24:13.952Z,3.83
2022-09-21T03:26:43.477Z,3.82
2022-09-21T03:29:12.962Z,3.69
2022-09-21T03:31:42.063Z,3.77
2022-09-21T03:34:12.547Z,3.80
2022-09-21T03:36:42.727Z,3.87
2022-09-21T03:39:11.823Z,3.81
2022-09-21T03:41:41.404Z,3.76
2022-09-21T03:44:10.764Z,3.74
2022-09-21T03:46:40.017Z,3.74
2022-09-21T03:49:09.194Z,3.68
2022-09-21T03:51:40.666Z,3.83
2022-09-21T03:54:09.844Z,3.70
2022-09-21T03:56:39.579Z,3.83
2022-09-21T03:59:13.756Z,3.72
2022-09-21T04:01:43.989Z,3.77
2022-09-21T04:04:13.602Z,3.84
2022-09-21T04:06:46.245Z,3.85
2022-09-21T04:09:15.793Z,4.04
2022-09-21T04:11:46.736Z,4.03
2022-09-21T04:14:16.399Z,3.85
2022-09-21T04:16:46.687Z,3.90
2022-09-21T04:19:16.693Z,3.90
2022-09-21T04:21:47.233Z,3.99
2022-09-21T04:24:16.859Z,4.02
2022-09-21T04:26:46.495Z,4.06
2022-09-21T04:29:16.495Z,3.96
2022-09-21T04:31:45.593Z,3.75
2022-09-21T04:34:15.375Z,3.65
2022-09-21T04:36:44.513Z,3.72
2022-09-21T04:39:14.915Z,3.61
2022-09-21T04:41:44.046Z,3.59
2022-09-21T04:44:13.183Z,3.83
2022-09-21T04:46:42.513Z,3.93
2022-09-21T04:49:11.809Z,4.04
2022-09-21T04:51:41.068Z,4.03
2022-09-21T04:54:10.881Z,3.93
2022-09-21T04:56:41.593Z,4.04
2022-09-21T04:59:10.820Z,3.87
2022-09-21T05:01:39.882Z,3.88
2022-09-21T05:04:09.030Z,3.99
2022-09-21T05:06:38.169Z,4.10
2022-09-21T05:09:24.848Z,4.17
2022-09-21T05:11:55.360Z,4.23
2022-09-21T05:14:24.467Z,4.19
2022-09-21T05:16:53.536Z,4.02
2022-09-21T05:19:22.939Z,4.04
2022-09-21T05:21:52.046Z,4.06
2022-09-21T05:24:21.152Z,4.17
2022-09-21T05:26:50.246Z,4.41
2022-09-21T05:29:21.609Z,4.43
2022-09-21T05:31:57.094Z,4.53
2022-09-21T05:34:42.550Z,4.62
2022-09-21T05:37:25.947Z,4.85
2022-09-21T05:39:55.857Z,5.00
2022-09-21T05:42:25.831Z,5.19
2022-09-21T05:44:57.333Z,5.14
2022-09-21T05:47:37.840Z,5.29
2022-09-21T05:50:24.459Z,5.45
2022-09-21T05:53:05.813Z,5.60
2022-09-21T05:55:48.396Z,5.69
2022-09-21T05:58:27.671Z,5.93
2022-09-21T06:01:16.585Z,5.94
2022-09-21T06:03:48.722Z,6.03
2022-09-21T06:06:21.835Z,6.18
2022-09-21T06:08:51.203Z,6.32
2022-09-21T06:11:20.668Z,6.49
2022-09-21T06:13:49.761Z,6.68
2022-09-21T06:16:20.356Z,6.81
2022-09-21T06:18:49.512Z,6.93
2022-09-21T06:21:18.523Z,7.00
2022-09-21T06:23:47.584Z,7.16
2022-09-21T06:26:17.739Z,7.38
2022-09-21T06:28:46.806Z,7.60
2022-09-21T06:31:15.966Z,7.82
2022-09-21T06:33:48.556Z,7.92
2022-09-21T06:36:18.532Z,8.06
2022-09-21T06:38:47.662Z,8.23
2022-09-21T06:41:21.214Z,8.38
2022-09-21T06:43:50.629Z,8.50
2022-09-21T06:46:19.803Z,8.58
2022-09-21T06:48:50.290Z,8.68
2022-09-21T06:51:21.008Z,8.83
2022-09-21T06:53:50.033Z,8.96
2022-09-21T06:56:19.122Z,9.04
2022-09-21T06:58:50.738Z,9.24
2022-09-21T07:01:20.982Z,9.38
2022-09-21T07:03:53.224Z,9.53
2022-09-21T07:06:22.594Z,9.65
2022-09-21T07:11:44.063Z,9.99
2022-09-21T07:14:14.199Z,10.17
2022-09-21T07:16:46.128Z,10.31
2022-09-21T07:19:16.793Z,10.54
2022-09-21T07:21:45.899Z,10.75
2022-09-21T07:24:15.696Z,10.92
2022-09-21T07:26:44.800Z,11.10
2022-09-21T07:29:14.172Z,11.25
2022-09-21T07:31:45.504Z,11.37
2022-09-21T07:34:16.033Z,11.52
2022-09-21T07:36:45.278Z,11.68
2022-09-21T07:39:14.408Z,11.85
2022-09-21T07:41:43.489Z,12.02
2022-09-21T07:44:12.532Z,12.20
2022-09-21T07:46:50.072Z,12.34
2022-09-21T07:49:20.720Z,12.50
2022-09-21T07:51:50.144Z,12.60
2022-09-21T07:54:19.263Z,12.74
2022-09-21T07:57:08.617Z,12.82
2022-09-21T07:59:36.691Z,13.05
2022-09-21T08:02:05.911Z,13.05
2022-09-21T08:04:36.552Z,13.26
2022-09-21T08:07:06.045Z,13.53
2022-09-21T08:09:35.336Z,14.08
2022-09-21T08:12:04.666Z,14.51
2022-09-21T08:14:34.778Z,14.85
2022-09-21T08:17:04.090Z,15.25
2022-09-21T08:19:33.250Z,15.53
2022-09-21T08:22:09.438Z,15.87
2022-09-21T08:24:39.071Z,16.28
2022-09-21T08:27:08.591Z,16.52
2022-09-21T08:29:37.785Z,16.82
2022-09-21T08:32:07.621Z,17.07
2022-09-21T08:34:36.737Z,17.18
2022-09-21T08:37:07.359Z,17.31
2022-09-21T08:39:37.766Z,17.42
2022-09-21T08:42:25.880Z,17.38
2022-09-21T08:44:58.296Z,16.74
2022-09-21T08:47:43.571Z,16.04
2022-09-21T08:50:32.073Z,15.30
2022-09-21T08:53:08.672Z,15.20
2022-09-21T08:55:37.928Z,15.18
2022-09-21T08:58:21.541Z,15.08
2022-09-21T09:01:02.482Z,14.94
2022-09-21T09:04:24.476Z,15.24
2022-09-21T09:07:09.309Z,15.39
2022-09-21T09:10:02.049Z,15.69
2022-09-21T09:12:51.110Z,16.08
2022-09-21T09:15:56.725Z,15.78
2022-09-21T09:18:40.208Z,15.01
2022-09-21T09:21:25.151Z,14.98
2022-09-21T09:24:04.112Z,14.46
2022-09-21T09:26:43.354Z,14.38
2022-09-21T09:29:20.653Z,14.35
2022-09-21T09:31:51.308Z,14.43
2022-09-21T09:34:26.028Z,14.31
2022-09-21T09:37:00.485Z,14.30
2022-09-21T09:39:31.906Z,14.28
2022-09-21T09:42:38.040Z,14.45
2022-09-21T09:45:26.589Z,14.80
2022-09-21T09:48:10.818Z,15.05
2022-09-21T09:50:43.033Z,15.33
2022-09-21T09:53:16.211Z,15.92
2022-09-21T09:55:49.059Z,16.40
2022-09-21T09:58:24.544Z,16.75
2022-09-21T10:00:57.673Z,16.96
2022-09-21T10:03:29.430Z,17.02
2022-09-21T10:05:58.882Z,17.32
2022-09-21T10:08:44.358Z,17.74
2022-09-21T10:11:15.501Z,18.00
2022-09-21T10:13:49.423Z,17.68
2022-09-21T10:16:23.351Z,17.82
2022-09-21T10:18:56.521Z,17.25
2022-09-21T10:21:29.617Z,17.06
2022-09-21T10:24:01.921Z,16.65
2022-09-21T10:26:35.900Z,16.90
2022-09-21T10:29:22.625Z,16.85
2022-09-21T10:31:59.539Z,17.49
2022-09-21T10:34:31.432Z,17.46
2022-09-21T10:37:07.050Z,17.60
2022-09-21T10:39:38.676Z,18.24
2022-09-21T10:42:14.936Z,17.84
2022-09-21T10:44:47.980Z,17.86
2022-09-21T10:47:22.710Z,16.94
2022-09-21T10:49:55.302Z,16.58
2022-09-21T10:52:34.177Z,16.67
2022-09-21T10:55:06.286Z,16.44
2022-09-21T10:57:36.061Z,16.44
2022-09-21T11:00:35.453Z,16.22
2022-09-21T11:03:34.189Z,16.28
2022-09-21T11:06:10.042Z,16.63
2022-09-21T11:08:48.219Z,17.03
2022-09-21T11:11:41.184Z,16.99
2022-09-21T11:14:25.718Z,16.82
2022-09-21T11:17:01.259Z,16.63
2022-09-21T11:19:36.483Z,16.72
2022-09-21T11:22:13.722Z,17.02
2022-09-21T11:25:01.197Z,17.86
2022-09-21T11:27:36.010Z,18.73
2022-09-21T11:30:11.717Z,19.48
2022-09-21T11:33:11.492Z,18.59
2022-09-21T11:36:03.469Z,17.52
2022-09-21T11:38:46.903Z,17.59
2022-09-21T11:41:34.083Z,17.37
2022-09-21T11:44:40.994Z,17.47
2022-09-21T11:47:32.360Z,17.34
2022-09-21T11:50:31.740Z,16.98
2022-09-21T11:53:20.405Z,17.20
2022-09-21T11:56:19.967Z,17.27
2022-09-21T11:59:00.776Z,17.32
2022-09-21T12:01:50.535Z,17.17
2022-09-21T12:04:37.767Z,17.49
2022-09-21T12:07:31.107Z,18.53
2022-09-21T12:10:33.284Z,19.46
2022-09-21T12:13:07.620Z,20.45
2022-09-21T12:15:47.171Z,21.23
2022-09-21T12:18:25.978Z,20.71
2022-09-21T12:21:04.274Z,19.48
2022-09-21T12:23:43.744Z,18.45
2022-09-21T12:26:19.580Z,17.75
2022-09-21T12:28:54.937Z,17.49
2022-09-21T12:31:30.956Z,17.16
2022-09-21T12:34:06.612Z,17.14
2022-09-21T12:36:41.982Z,17.18
2022-09-21T12:39:21.961Z,17.37
2022-09-21T12:41:59.225Z,17.59
2022-09-21T12:44:51.961Z,17.80
2022-09-21T12:47:29.060Z,17.93
2022-09-21T12:50:06.604Z,18.32
2022-09-21T12:52:37.611Z,18.60
2022-09-21T12:55:30.801Z,18.64
2022-09-21T12:58:15.478Z,18.56
2022-09-21T13:00:59.034Z,18.83
2022-09-21T13:03:36.518Z,18.74
2022-09-21T13:06:32.180Z,20.10
2022-09-21T13:09:05.226Z,21.42
2022-09-21T13:11:54.595Z,21.45
2022-09-21T13:14:27.876Z,20.96
2022-09-21T13:17:01.057Z,20.73
2022-09-21T13:19:33.841Z,20.40
2022-09-21T13:22:16.115Z,20.24
2022-09-21T13:24:48.500Z,20.40
2022-09-21T13:27:19.049Z,20.72
2022-09-21T13:30:30.007Z,21.13
2022-09-21T13:32:59.564Z,21.54
2022-09-21T13:36:11.614Z,21.67
2022-09-21T13:39:14.903Z,21.85
2022-09-21T13:42:02.269Z,21.07
2022-09-21T13:44:46.383Z,19.86
2022-09-21T13:47:15.535Z,20.43
2022-09-21T13:49:54.973Z,21.49
2022-09-21T13:52:40.425Z,22.06
2022-09-21T13:55:28.581Z,22.88
2022-09-21T13:58:02.134Z,23.57
2022-09-21T14:00:41.268Z,24.50
2022-09-21T14:03:25.623Z,27.71
2022-09-21T14:06:01.079Z,26.52
2022-09-21T14:08:34.406Z,24.18
2022-09-21T14:11:08.091Z,25.98
2022-09-21T14:13:42.265Z,27.09
2022-09-21T14:16:55.912Z,29.22
2022-09-21T14:20:00.995Z,31.17
2022-09-21T14:22:43.706Z,33.25
2022-09-21T14:25:51.821Z,34.54
2022-09-21T14:28:36.518Z,34.33
2022-09-21T14:31:17.475Z,33.90
2022-09-21T14:33:55.073Z,34.94
2022-09-21T14:36:31.351Z,34.09
2022-09-21T14:39:05.516Z,27.06
2022-09-21T14:41:41.546Z,21.96
2022-09-21T14:44:21.087Z,20.11
2022-09-21T14:47:37.059Z,19.39
2022-09-21T14:50:25.265Z,18.71
2022-09-21T14:53:39.330Z,18.19
2022-09-21T14:56:34.388Z,17.56
2022-09-21T14:59:39.777Z,17.55
2022-09-21T15:02:21.056Z,17.53
2022-09-21T15:05:13.498Z,17.80
2022-09-21T15:08:12.512Z,17.87
2022-09-21T15:10:58.628Z,17.82
2022-09-21T15:13:58.444Z,17.58
2022-09-21T15:16:36.899Z,16.91
2022-09-21T15:19:25.672Z,16.68
2022-09-21T15:21:56.799Z,16.35
2022-09-21T15:24:34.240Z,16.50
2022-09-21T15:27:10.483Z,16.66
2022-09-21T15:29:41.345Z,16.80
2022-09-21T15:32:34.192Z,16.89
2022-09-21T15:35:07.548Z,16.98
2022-09-21T15:37:39.881Z,17.16
2022-09-21T15:40:20.674Z,17.20
2022-09-21T15:43:06.598Z,16.95
2022-09-21T15:45:52.020Z,16.80
2022-09-21T15:48:21.903Z,16.62
2022-09-21T15:51:07.682Z,16.48
2022-09-21T15:53:45.744Z,16.30
2022-09-21T15:56:26.379Z,16.26
2022-09-21T15:59:09.090Z,16.22
2022-09-21T16:01:43.093Z,16.20
2022-09-21T16:04:21.506Z,16.18
2022-09-21T16:07:03.575Z,16.08
2022-09-21T16:09:49.909Z,16.00
2022-09-21T16:12:43.822Z,16.02
2022-09-21T16:15:25.190Z,15.98
2022-09-21T16:18:04.042Z,15.88
2022-09-21T16:20:44.739Z,15.72
2022-09-21T16:23:18.368Z,15.58
2022-09-21T16:25:57.358Z,15.28
2022-09-21T16:28:43.064Z,14.76
2022-09-21T16:31:39.187Z,14.26
2022-09-21T16:34:25.569Z,13.64
2022-09-21T16:36:58.496Z,13.24
2022-09-21T16:39:32.175Z,12.99
2022-09-21T16:42:05.862Z,12.58
2022-09-21T16:44:45.166Z,12.33
2022-09-21T16:47:17.752Z,12.22
2022-09-21T16:49:49.773Z,12.21
2022-09-21T16:52:23.362Z,12.12
2022-09-21T16:54:52.936Z,12.01
2022-09-21T16:57:25.177Z,11.86
2022-09-21T16:59:59.559Z,11.65
2022-09-21T17:02:28.881Z,11.44
2022-09-21T17:05:00.787Z,11.29
2022-09-21T17:07:36.498Z,11.16
2022-09-21T17:10:14.136Z,11.07
2022-09-21T17:12:44.426Z,10.95
2022-09-21T17:15:15.771Z,10.83
2022-09-21T17:17:44.888Z,10.65
2022-09-21T17:20:20.366Z,10.41
2022-09-21T17:22:52.642Z,10.22
2022-09-21T17:25:23.953Z,10.09
2022-09-21T17:27:53.398Z,10.01
2022-09-21T17:30:29.929Z,9.75
2022-09-21T17:33:05.771Z,9.51
2022-09-21T17:35:56.539Z,9.53
2022-09-21T17:38:49.182Z,9.54
2022-09-21T17:41:35.645Z,9.37
2022-09-21T17:44:20.266Z,9.41
2022-09-21T17:47:02.946Z,9.44
2022-09-21T17:49:35.384Z,9.31
2022-09-21T17:52:28.484Z,9.43
2022-09-21T17:55:01.266Z,9.44
2022-09-21T17:57:48.201Z,9.42
2022-09-21T18:00:22.652Z,9.01
2022-09-21T18:02:55.552Z,8.82
2022-09-21T18:05:27.952Z,8.68
2022-09-21T18:08:00.266Z,8.48
2022-09-21T18:10:35.326Z,8.43
2022-09-21T18:13:20.875Z,8.31
2022-09-21T18:16:10.505Z,8.20
2022-09-21T18:18:47.357Z,8.17
2022-09-21T18:21:22.256Z,8.06
2022-09-21T18:24:15.081Z,8.02
2022-09-21T18:26:45.543Z,7.97
2022-09-21T18:29:39.500Z,7.78
2022-09-21T18:32:32.514Z,7.49
2022-09-21T18:35:31.921Z,7.58
2022-09-21T18:38:22.074Z,7.64
2022-09-21T18:41:14.236Z,7.68
2022-09-21T18:44:08.458Z,7.95
2022-09-21T18:46:50.836Z,7.88
2022-09-21T18:49:42.091Z,7.50
2022-09-21T18:52:33.939Z,7.34
2022-09-21T18:55:15.396Z,7.32
2022-09-21T18:57:45.605Z,7.46
2022-09-21T19:00:18.776Z,7.22
2022-09-21T19:03:12.329Z,7.06
2022-09-21T19:05:43.081Z,7.02
2022-09-21T19:08:23.568Z,7.01
2022-09-21T19:11:05.498Z,6.83
2022-09-21T19:13:49.690Z,6.85
2022-09-21T19:16:32.378Z,6.85
2022-09-21T19:19:22.587Z,6.84
2022-09-21T19:22:02.513Z,6.76
2022-09-21T19:24:46.578Z,6.73
2022-09-21T19:27:27.727Z,6.71
2022-09-21T19:30:13.158Z,6.57
2022-09-21T19:32:47.293Z,6.39
2022-09-21T19:35:26.966Z,6.27
2022-09-21T19:38:01.554Z,6.39
2022-09-21T19:40:34.794Z,6.40
2022-09-21T19:43:21.958Z,6.55
2022-09-21T19:46:12.146Z,6.85
2022-09-21T19:48:44.908Z,6.59
2022-09-21T19:51:20.487Z,6.43
2022-09-21T19:54:14.719Z,6.27
2022-09-21T19:57:05.981Z,6.06
2022-09-21T19:59:45.526Z,5.98
2022-09-21T20:02:19.977Z,6.12
2022-09-21T20:04:56.023Z,6.04
2022-09-21T20:07:44.472Z,6.01
2022-09-21T20:10:38.682Z,5.75
2022-09-21T20:13:22.134Z,6.00
2022-09-21T20:15:57.680Z,5.87
2022-09-21T20:18:50.260Z,5.79
2022-09-21T20:21:23.492Z,5.59
2022-09-21T20:24:02.108Z,5.36
2022-09-21T20:26:32.623Z,5.54
2022-09-21T20:29:12.539Z,5.57
2022-09-21T20:31:50.762Z,5.48
2022-09-21T20:34:20.642Z,5.61
2022-09-21T20:36:50.081Z,5.55
2022-09-21T20:39:19.384Z,5.52
2022-09-21T20:41:49.015Z,5.41
2022-09-21T20:44:22.567Z,5.05
2022-09-21T20:46:52.107Z,4.90
2022-09-21T20:49:21.286Z,4.96
2022-09-21T20:51:50.506Z,4.98
2022-09-21T20:54:19.733Z,5.22
2022-09-21T20:56:49.124Z,5.11
2022-09-21T20:59:21.110Z,5.05
2022-09-21T21:01:52.799Z,4.82
2022-09-21T21:04:22.914Z,5.00
2022-09-21T21:06:52.474Z,5.09
2022-09-21T21:09:22.916Z,5.13
2022-09-21T21:11:52.693Z,5.03
2022-09-21T21:14:23.837Z,4.89
2022-09-21T21:16:53.153Z,4.72
2022-09-21T21:19:22.422Z,4.65
2022-09-21T21:21:51.649Z,4.56
2022-09-21T21:24:38.242Z,4.67
2022-09-21T21:27:30.362Z,4.79
2022-09-21T21:30:02.212Z,4.87
2022-09-21T21:32:33.284Z,4.74
2022-09-21T21:35:03.917Z,4.68
2022-09-21T21:37:33.224Z,4.50
2022-09-21T21:40:04.003Z,4.35
2022-09-21T21:42:33.307Z,4.50
2022-09-21T21:45:04.187Z,4.57
2022-09-21T21:47:41.365Z,4.50
2022-09-21T21:50:35.990Z,4.43
2022-09-21T21:53:05.192Z,4.45
2022-09-21T21:55:34.314Z,4.21
2022-09-21T21:58:03.589Z,4.19
2022-09-21T22:00:34.306Z,4.16
2022-09-21T22:03:05.066Z,4.09
2022-09-21T22:05:36.114Z,4.03
2022-09-21T22:08:06.971Z,4.02
2022-09-21T22:10:36.181Z,3.94
2022-09-21T22:13:08.422Z,3.90
2022-09-21T22:15:39.117Z,3.95
2022-09-21T22:18:08.383Z,3.99
2022-09-21T22:20:37.566Z,3.96
2022-09-21T22:23:09.212Z,3.87
2022-09-21T22:25:39.399Z,3.94
2022-09-21T22:28:09.179Z,3.77
2022-09-21T22:30:48.159Z,3.70
2022-09-21T22:33:17.933Z,3.57
2022-09-21T22:35:51.576Z,3.62
2022-09-21T22:38:20.785Z,3.69
2022-09-21T22:40:49.996Z,3.65
2022-09-21T22:43:19.340Z,3.71
2022-09-21T22:45:50.040Z,3.84
2022-09-21T22:48:19.717Z,3.91
2022-09-21T22:50:48.869Z,4.16
2022-09-21T22:53:18.022Z,4.00
2022-09-21T22:55:47.605Z,3.85
2022-09-21T22:58:17.514Z,3.72
2022-09-21T23:00:49.379Z,3.60
2022-09-21T23:03:18.923Z,3.63
2022-09-21T23:05:57.685Z,3.56
2022-09-21T23:08:28.352Z,3.54
2022-09-21T23:10:57.793Z,3.62
2022-09-21T23:13:26.935Z,3.61
2022-09-21T23:16:03.964Z,3.60
2022-09-21T23:18:33.401Z,3.64
2022-09-21T23:21:32.411Z,3.38
2022-09-21T23:24:03.660Z,3.37
2022-09-21T23:26:34.815Z,3.32
2022-09-21T23:29:08.950Z,3.51
2022-09-21T23:31:44.700Z,3.66
2022-09-21T23:34:16.037Z,3.68
2022-09-21T23:36:46.497Z,3.49
2022-09-21T23:39:17.093Z,3.43
2022-09-21T23:41:46.363Z,3.35
2022-09-21T23:44:15.561Z,3.13
2022-09-21T23:46:46.386Z,2.91
2022-09-21T23:49:15.693Z,3.03
2022-09-21T23:51:44.749Z,3.32
2022-09-21T23:54:15.234Z,3.20
2022-09-21T23:56:45.070Z,3.16
2022-09-21T23:59:14.252Z,3.06
